Deerfield Twp, New Jersey
Current Conditions -  °F | °C
As of 5:54 PM on Friday 28 Nov 2014 (Local Time) from KMIV Reporting Station
Clear Clear  
Wind Chill: -4°   Ceiling: Unl
Heat Index: -1°   Visibility: 10mi
Dew Point: -9°   Wind: 6mph
Humidity: 54%   Direction: 300°WNW
Pressure: 30.26"   Gusts: NA
Location:  39.4433°N, 75.2554°W
Report Text: KMIV 282254Z AUTO 30005KT 10SM CLR M01/M09 A3026 RMK AO2 SLP248 T10061089
Loading
Personal Weather Stations






























Interactive Weather Map New forecast layout! Learn more

10-Day Weather Forecast

Advertisements
Track Severe Weather on mobile